sensor_id;sensor_type;location;lat;lon;timestamp;temperature;humidity
18658;DHT22;9458;50.942;5.074;2023-04-15T00:02:16;8.70;99.90
18658;DHT22;9458;50.942;5.074;2023-04-15T00:04:50;8.70;99.90
18658;DHT22;9458;50.942;5.074;2023-04-15T00:07:17;8.60;99.90
18658;DHT22;9458;50.942;5.074;2023-04-15T00:09:48;8.50;99.90
18658;DHT22;9458;50.942;5.074;2023-04-15T00:12:26;8.50;99.90
18658;DHT22;9458;50.942;5.074;2023-04-15T00:15:08;8.40;99.90
18658;DHT22;9458;50.942;5.074;2023-04-15T00:17:40;8.30;99.90
18658;DHT22;9458;50.942;5.074;2023-04-15T00:20:08;8.30;99.90
18658;DHT22;9458;50.942;5.074;2023-04-15T00:22:37;8.30;99.90
18658;DHT22;9458;50.942;5.074;2023-04-15T00:25:08;8.40;99.90
18658;DHT22;9458;50.942;5.074;2023-04-15T00:27:37;8.50;99.90
18658;DHT22;9458;50.942;5.074;2023-04-15T00:30:10;8.60;99.90
18658;DHT22;9458;50.942;5.074;2023-04-15T00:32:38;8.60;99.90
18658;DHT22;9458;50.942;5.074;2023-04-15T00:35:07;8.70;99.90
18658;DHT22;9458;50.942;5.074;2023-04-15T00:37:35;8.70;99.90
18658;DHT22;9458;50.942;5.074;2023-04-15T00:40:03;8.80;99.90
18658;DHT22;9458;50.942;5.074;2023-04-15T00:42:34;8.80;99.90
18658;DHT22;9458;50.942;5.074;2023-04-15T00:45:04;8.70;99.90
18658;DHT22;9458;50.942;5.074;2023-04-15T00:47:34;8.70;99.90
18658;DHT22;9458;50.942;5.074;2023-04-15T00:50:04;8.70;99.90
18658;DHT22;9458;50.942;5.074;2023-04-15T00:52:34;8.50;99.90
18658;DHT22;9458;50.942;5.074;2023-04-15T00:55:05;8.50;99.90
18658;DHT22;9458;50.942;5.074;2023-04-15T00:57:34;8.40;99.90
18658;DHT22;9458;50.942;5.074;2023-04-15T01:00:02;8.40;99.90
18658;DHT22;9458;50.942;5.074;2023-04-15T01:02:36;8.40;99.90
18658;DHT22;9458;50.942;5.074;2023-04-15T01:05:04;8.40;99.90
18658;DHT22;9458;50.942;5.074;2023-04-15T01:07:32;8.40;99.90
18658;DHT22;9458;50.942;5.074;2023-04-15T01:10:02;8.50;99.90
18658;DHT22;9458;50.942;5.074;2023-04-15T01:12:31;8.50;99.90
18658;DHT22;9458;50.942;5.074;2023-04-15T01:15:00;8.50;99.90
18658;DHT22;9458;50.942;5.074;2023-04-15T01:17:28;8.50;99.90
18658;DHT22;9458;50.942;5.074;2023-04-15T01:19:58;8.50;99.90
18658;DHT22;9458;50.942;5.074;2023-04-15T01:22:26;8.50;99.90
18658;DHT22;9458;50.942;5.074;2023-04-15T01:24:58;8.50;99.90
18658;DHT22;9458;50.942;5.074;2023-04-15T01:27:31;8.50;99.90
18658;DHT22;9458;50.942;5.074;2023-04-15T01:30:01;8.50;99.90
18658;DHT22;9458;50.942;5.074;2023-04-15T01:32:30;8.50;99.90
18658;DHT22;9458;50.942;5.074;2023-04-15T01:34:58;8.40;99.90
18658;DHT22;9458;50.942;5.074;2023-04-15T01:37:26;8.40;99.90
18658;DHT22;9458;50.942;5.074;2023-04-15T01:39:54;8.30;99.90
18658;DHT22;9458;50.942;5.074;2023-04-15T01:42:23;8.40;99.90
18658;DHT22;9458;50.942;5.074;2023-04-15T01:44:52;8.40;99.90
18658;DHT22;9458;50.942;5.074;2023-04-15T01:47:21;8.40;99.90
18658;DHT22;9458;50.942;5.074;2023-04-15T01:49:49;8.40;99.90
18658;DHT22;9458;50.942;5.074;2023-04-15T01:52:17;8.50;99.90
18658;DHT22;9458;50.942;5.074;2023-04-15T01:54:44;8.50;99.90
18658;DHT22;9458;50.942;5.074;2023-04-15T01:57:13;8.60;99.90
18658;DHT22;9458;50.942;5.074;2023-04-15T01:59:40;8.60;99.90
18658;DHT22;9458;50.942;5.074;2023-04-15T02:02:10;8.60;99.90
18658;DHT22;9458;50.942;5.074;2023-04-15T02:04:38;8.60;99.90
18658;DHT22;9458;50.942;5.074;2023-04-15T02:07:05;8.60;99.90
18658;DHT22;9458;50.942;5.074;2023-04-15T02:09:34;8.60;99.90
18658;DHT22;9458;50.942;5.074;2023-04-15T02:12:02;8.60;99.90
18658;DHT22;9458;50.942;5.074;2023-04-15T02:14:30;8.60;99.90
18658;DHT22;9458;50.942;5.074;2023-04-15T02:16:58;8.60;99.90
18658;DHT22;9458;50.942;5.074;2023-04-15T02:19:34;8.50;99.90
18658;DHT22;9458;50.942;5.074;2023-04-15T02:22:02;8.50;99.90
18658;DHT22;9458;50.942;5.074;2023-04-15T02:24:33;8.60;99.90
18658;DHT22;9458;50.942;5.074;2023-04-15T02:27:03;8.60;99.90
18658;DHT22;9458;50.942;5.074;2023-04-15T02:29:31;8.60;99.90
18658;DHT22;9458;50.942;5.074;2023-04-15T02:31:59;8.50;99.90
18658;DHT22;9458;50.942;5.074;2023-04-15T02:34:28;8.50;99.90
18658;DHT22;9458;50.942;5.074;2023-04-15T02:36:59;8.50;99.90
18658;DHT22;9458;50.942;5.074;2023-04-15T02:39:29;8.60;99.90
18658;DHT22;9458;50.942;5.074;2023-04-15T02:41:57;8.50;99.90
18658;DHT22;9458;50.942;5.074;2023-04-15T02:44:29;8.50;99.90
18658;DHT22;9458;50.942;5.074;2023-04-15T02:47:00;8.50;99.90
18658;DHT22;9458;50.942;5.074;2023-04-15T02:49:29;8.60;99.90
18658;DHT22;9458;50.942;5.074;2023-04-15T02:51:58;8.60;99.90
18658;DHT22;9458;50.942;5.074;2023-04-15T02:54:26;8.60;99.90
18658;DHT22;9458;50.942;5.074;2023-04-15T02:56:55;8.50;99.90
18658;DHT22;9458;50.942;5.074;2023-04-15T02:59:23;8.50;99.90
18658;DHT22;9458;50.942;5.074;2023-04-15T03:01:53;8.50;99.90
18658;DHT22;9458;50.942;5.074;2023-04-15T03:04:22;8.50;99.90
18658;DHT22;9458;50.942;5.074;2023-04-15T03:06:50;8.50;99.90
18658;DHT22;9458;50.942;5.074;2023-04-15T03:09:19;8.40;99.90
18658;DHT22;9458;50.942;5.074;2023-04-15T03:11:49;8.40;99.90
18658;DHT22;9458;50.942;5.074;2023-04-15T03:14:19;8.40;99.90
18658;DHT22;9458;50.942;5.074;2023-04-15T03:16:48;8.40;99.90
18658;DHT22;9458;50.942;5.074;2023-04-15T03:19:17;8.50;99.90
18658;DHT22;9458;50.942;5.074;2023-04-15T03:21:45;8.40;99.90
18658;DHT22;9458;50.942;5.074;2023-04-15T03:24:13;8.40;99.90
18658;DHT22;9458;50.942;5.074;2023-04-15T03:26:44;8.40;99.90
18658;DHT22;9458;50.942;5.074;2023-04-15T03:29:11;8.40;99.90
18658;DHT22;9458;50.942;5.074;2023-04-15T03:31:40;8.40;99.90
18658;DHT22;9458;50.942;5.074;2023-04-15T03:34:09;8.50;99.90
18658;DHT22;9458;50.942;5.074;2023-04-15T03:36:37;8.50;99.90
18658;DHT22;9458;50.942;5.074;2023-04-15T03:39:05;8.50;99.90
18658;DHT22;9458;50.942;5.074;2023-04-15T03:41:33;8.50;99.90
18658;DHT22;9458;50.942;5.074;2023-04-15T03:44:02;8.50;99.90
18658;DHT22;9458;50.942;5.074;2023-04-15T03:46:30;8.40;99.90
18658;DHT22;9458;50.942;5.074;2023-04-15T03:48:58;8.30;99.90
18658;DHT22;9458;50.942;5.074;2023-04-15T03:51:26;8.30;99.90
18658;DHT22;9458;50.942;5.074;2023-04-15T03:53:54;8.40;99.90
18658;DHT22;9458;50.942;5.074;2023-04-15T03:56:22;8.40;99.90
18658;DHT22;9458;50.942;5.074;2023-04-15T03:58:51;8.40;99.90
18658;DHT22;9458;50.942;5.074;2023-04-15T04:01:22;8.30;99.90
18658;DHT22;9458;50.942;5.074;2023-04-15T04:03:50;8.20;99.90
18658;DHT22;9458;50.942;5.074;2023-04-15T04:06:19;8.20;99.90
18658;DHT22;9458;50.942;5.074;2023-04-15T04:08:48;8.40;99.90
18658;DHT22;9458;50.942;5.074;2023-04-15T04:11:16;8.40;99.90
18658;DHT22;9458;50.942;5.074;2023-04-15T04:13:44;8.40;99.90
18658;DHT22;9458;50.942;5.074;2023-04-15T04:16:11;8.40;99.90
18658;DHT22;9458;50.942;5.074;2023-04-15T04:18:41;8.50;99.90
18658;DHT22;9458;50.942;5.074;2023-04-15T04:21:09;8.50;99.90
18658;DHT22;9458;50.942;5.074;2023-04-15T04:23:37;8.50;99.90
18658;DHT22;9458;50.942;5.074;2023-04-15T04:26:07;8.40;99.90
18658;DHT22;9458;50.942;5.074;2023-04-15T04:28:36;8.50;99.90
18658;DHT22;9458;50.942;5.074;2023-04-15T04:31:06;8.50;99.90
18658;DHT22;9458;50.942;5.074;2023-04-15T04:33:36;8.60;99.90
18658;DHT22;9458;50.942;5.074;2023-04-15T04:36:08;8.50;99.90
18658;DHT22;9458;50.942;5.074;2023-04-15T04:38:36;8.50;99.90
18658;DHT22;9458;50.942;5.074;2023-04-15T04:41:05;8.50;99.90
18658;DHT22;9458;50.942;5.074;2023-04-15T04:43:33;8.50;99.90
18658;DHT22;9458;50.942;5.074;2023-04-15T04:46:01;8.50;99.90
18658;DHT22;9458;50.942;5.074;2023-04-15T04:48:30;8.50;99.90
18658;DHT22;9458;50.942;5.074;2023-04-15T04:50:58;8.40;99.90
18658;DHT22;9458;50.942;5.074;2023-04-15T04:53:28;8.30;99.90
18658;DHT22;9458;50.942;5.074;2023-04-15T04:55:56;8.40;99.90
18658;DHT22;9458;50.942;5.074;2023-04-15T04:58:24;8.40;99.90
18658;DHT22;9458;50.942;5.074;2023-04-15T05:00:52;8.40;99.90
18658;DHT22;9458;50.942;5.074;2023-04-15T05:03:20;8.50;99.90
18658;DHT22;9458;50.942;5.074;2023-04-15T05:05:49;8.50;99.90
18658;DHT22;9458;50.942;5.074;2023-04-15T05:08:17;8.50;99.90
18658;DHT22;9458;50.942;5.074;2023-04-15T05:10:47;8.60;99.90
18658;DHT22;9458;50.942;5.074;2023-04-15T05:13:15;8.90;99.90
18658;DHT22;9458;50.942;5.074;2023-04-15T05:15:44;9.00;99.90
18658;DHT22;9458;50.942;5.074;2023-04-15T05:18:13;9.00;99.90
18658;DHT22;9458;50.942;5.074;2023-04-15T05:20:41;9.00;99.90
18658;DHT22;9458;50.942;5.074;2023-04-15T05:23:10;9.10;99.90
18658;DHT22;9458;50.942;5.074;2023-04-15T05:25:39;8.90;99.90
18658;DHT22;9458;50.942;5.074;2023-04-15T05:28:08;8.70;99.90
18658;DHT22;9458;50.942;5.074;2023-04-15T05:30:36;8.70;99.90
18658;DHT22;9458;50.942;5.074;2023-04-15T05:33:04;8.70;99.90
18658;DHT22;9458;50.942;5.074;2023-04-15T05:35:32;8.70;99.90
18658;DHT22;9458;50.942;5.074;2023-04-15T05:38:00;8.80;99.90
18658;DHT22;9458;50.942;5.074;2023-04-15T05:40:29;8.80;99.90
18658;DHT22;9458;50.942;5.074;2023-04-15T05:42:58;8.80;99.90
18658;DHT22;9458;50.942;5.074;2023-04-15T05:45:28;8.80;99.90
18658;DHT22;9458;50.942;5.074;2023-04-15T05:47:56;8.80;99.90
18658;DHT22;9458;50.942;5.074;2023-04-15T05:50:24;9.00;99.90
18658;DHT22;9458;50.942;5.074;2023-04-15T05:52:52;9.00;99.90
18658;DHT22;9458;50.942;5.074;2023-04-15T05:55:21;9.20;99.90
18658;DHT22;9458;50.942;5.074;2023-04-15T05:57:50;9.30;99.90
18658;DHT22;9458;50.942;5.074;2023-04-15T06:00:18;9.30;99.90
18658;DHT22;9458;50.942;5.074;2023-04-15T06:02:49;9.50;99.90
18658;DHT22;9458;50.942;5.074;2023-04-15T06:05:26;9.60;99.90
18658;DHT22;9458;50.942;5.074;2023-04-15T06:08:02;9.70;99.90
18658;DHT22;9458;50.942;5.074;2023-04-15T06:10:36;9.90;99.90
18658;DHT22;9458;50.942;5.074;2023-04-15T06:13:03;10.10;99.90
18658;DHT22;9458;50.942;5.074;2023-04-15T06:15:34;10.50;99.90
18658;DHT22;9458;50.942;5.074;2023-04-15T06:18:03;10.80;99.90
18658;DHT22;9458;50.942;5.074;2023-04-15T06:20:34;11.30;99.90
18658;DHT22;9458;50.942;5.074;2023-04-15T06:23:02;11.90;99.90
18658;DHT22;9458;50.942;5.074;2023-04-15T06:25:35;11.60;99.90
18658;DHT22;9458;50.942;5.074;2023-04-15T06:28:03;11.70;99.90
18658;DHT22;9458;50.942;5.074;2023-04-15T06:30:31;11.60;99.90
18658;DHT22;9458;50.942;5.074;2023-04-15T06:32:59;11.80;99.90
18658;DHT22;9458;50.942;5.074;2023-04-15T06:35:29;12.90;99.90
18658;DHT22;9458;50.942;5.074;2023-04-15T06:37:57;14.00;99.90
18658;DHT22;9458;50.942;5.074;2023-04-15T06:40:25;15.10;99.90
18658;DHT22;9458;50.942;5.074;2023-04-15T06:42:54;15.90;99.90
18658;DHT22;9458;50.942;5.074;2023-04-15T06:45:22;16.30;99.90
18658;DHT22;9458;50.942;5.074;2023-04-15T06:47:51;16.90;99.90
18658;DHT22;9458;50.942;5.074;2023-04-15T06:50:19;16.70;99.90
18658;DHT22;9458;50.942;5.074;2023-04-15T06:52:48;17.60;99.90
18658;DHT22;9458;50.942;5.074;2023-04-15T06:55:17;17.50;99.90
18658;DHT22;9458;50.942;5.074;2023-04-15T06:57:46;16.30;99.90
18658;DHT22;9458;50.942;5.074;2023-04-15T07:00:14;15.90;99.90
18658;DHT22;9458;50.942;5.074;2023-04-15T07:02:47;15.90;99.90
18658;DHT22;9458;50.942;5.074;2023-04-15T07:05:15;16.00;99.90
18658;DHT22;9458;50.942;5.074;2023-04-15T07:07:44;17.40;99.90
18658;DHT22;9458;50.942;5.074;2023-04-15T07:10:15;18.80;99.90
18658;DHT22;9458;50.942;5.074;2023-04-15T07:12:43;21.70;99.90
18658;DHT22;9458;50.942;5.074;2023-04-15T07:15:12;22.40;97.20
18658;DHT22;9458;50.942;5.074;2023-04-15T07:17:41;22.10;94.30
18658;DHT22;9458;50.942;5.074;2023-04-15T07:20:10;23.10;92.10
18658;DHT22;9458;50.942;5.074;2023-04-15T07:22:39;23.50;92.20
18658;DHT22;9458;50.942;5.074;2023-04-15T07:25:08;24.10;90.40
18658;DHT22;9458;50.942;5.074;2023-04-15T07:27:38;24.80;88.10
18658;DHT22;9458;50.942;5.074;2023-04-15T07:30:07;25.90;84.00
18658;DHT22;9458;50.942;5.074;2023-04-15T07:32:36;26.00;81.10
18658;DHT22;9458;50.942;5.074;2023-04-15T07:35:04;26.10;78.30
18658;DHT22;9458;50.942;5.074;2023-04-15T07:37:33;26.20;77.00
18658;DHT22;9458;50.942;5.074;2023-04-15T07:40:02;27.20;74.80
18658;DHT22;9458;50.942;5.074;2023-04-15T07:42:33;28.10;73.50
18658;DHT22;9458;50.942;5.074;2023-04-15T07:45:03;28.60;73.00
18658;DHT22;9458;50.942;5.074;2023-04-15T07:47:32;28.10;72.20
18658;DHT22;9458;50.942;5.074;2023-04-15T07:50:01;28.20;69.80
18658;DHT22;9458;50.942;5.074;2023-04-15T07:52:31;28.90;68.10
18658;DHT22;9458;50.942;5.074;2023-04-15T07:55:05;29.30;66.20
18658;DHT22;9458;50.942;5.074;2023-04-15T07:57:34;28.40;66.20
18658;DHT22;9458;50.942;5.074;2023-04-15T08:00:06;29.60;66.20
18658;DHT22;9458;50.942;5.074;2023-04-15T08:02:35;29.60;64.20
18658;DHT22;9458;50.942;5.074;2023-04-15T08:05:04;28.40;67.50
18658;DHT22;9458;50.942;5.074;2023-04-15T08:07:33;28.80;63.80
18658;DHT22;9458;50.942;5.074;2023-04-15T08:10:04;28.10;65.40
18658;DHT22;9458;50.942;5.074;2023-04-15T08:12:37;28.60;65.30
18658;DHT22;9458;50.942;5.074;2023-04-15T08:15:09;28.50;66.70
18658;DHT22;9458;50.942;5.074;2023-04-15T08:17:38;28.40;62.50
18658;DHT22;9458;50.942;5.074;2023-04-15T08:20:07;28.00;63.70
18658;DHT22;9458;50.942;5.074;2023-04-15T08:22:36;28.70;63.80
18658;DHT22;9458;50.942;5.074;2023-04-15T08:25:05;29.30;62.50
18658;DHT22;9458;50.942;5.074;2023-04-15T08:27:35;30.10;62.40
18658;DHT22;9458;50.942;5.074;2023-04-15T08:30:04;27.50;62.90
18658;DHT22;9458;50.942;5.074;2023-04-15T08:32:34;27.60;65.60
18658;DHT22;9458;50.942;5.074;2023-04-15T08:35:03;27.80;64.30
18658;DHT22;9458;50.942;5.074;2023-04-15T08:37:31;29.20;66.10
18658;DHT22;9458;50.942;5.074;2023-04-15T08:40:00;29.50;65.50
18658;DHT22;9458;50.942;5.074;2023-04-15T08:42:31;29.30;61.90
18658;DHT22;9458;50.942;5.074;2023-04-15T08:45:04;28.90;63.80
18658;DHT22;9458;50.942;5.074;2023-04-15T08:47:35;29.10;62.90
18658;DHT22;9458;50.942;5.074;2023-04-15T08:50:08;29.50;62.70
18658;DHT22;9458;50.942;5.074;2023-04-15T08:52:38;27.40;64.70
18658;DHT22;9458;50.942;5.074;2023-04-15T08:55:07;28.90;66.10
18658;DHT22;9458;50.942;5.074;2023-04-15T08:57:37;27.70;64.70
18658;DHT22;9458;50.942;5.074;2023-04-15T09:00:06;26.30;66.90
18658;DHT22;9458;50.942;5.074;2023-04-15T09:02:38;27.80;67.10
18658;DHT22;9458;50.942;5.074;2023-04-15T09:05:07;28.10;64.90
18658;DHT22;9458;50.942;5.074;2023-04-15T09:07:37;28.60;63.70
18658;DHT22;9458;50.942;5.074;2023-04-15T09:10:06;27.60;65.60
18658;DHT22;9458;50.942;5.074;2023-04-15T09:12:39;27.10;66.30
18658;DHT22;9458;50.942;5.074;2023-04-15T09:15:10;28.10;66.40
18658;DHT22;9458;50.942;5.074;2023-04-15T09:17:43;26.90;64.80
18658;DHT22;9458;50.942;5.074;2023-04-15T09:20:13;28.00;64.60
18658;DHT22;9458;50.942;5.074;2023-04-15T09:22:44;30.10;63.30
18658;DHT22;9458;50.942;5.074;2023-04-15T09:25:28;27.80;62.00
18658;DHT22;9458;50.942;5.074;2023-04-15T09:28:01;27.70;63.90
18658;DHT22;9458;50.942;5.074;2023-04-15T09:30:29;27.80;63.90
18658;DHT22;9458;50.942;5.074;2023-04-15T09:32:59;29.90;61.50
18658;DHT22;9458;50.942;5.074;2023-04-15T09:35:27;29.30;58.50
18658;DHT22;9458;50.942;5.074;2023-04-15T09:38:02;29.50;59.80
18658;DHT22;9458;50.942;5.074;2023-04-15T09:40:34;28.80;58.80
18658;DHT22;9458;50.942;5.074;2023-04-15T09:43:04;27.60;61.00
18658;DHT22;9458;50.942;5.074;2023-04-15T09:45:33;26.40;61.20
18658;DHT22;9458;50.942;5.074;2023-04-15T09:48:15;26.30;65.40
18658;DHT22;9458;50.942;5.074;2023-04-15T09:50:44;27.30;63.00
18658;DHT22;9458;50.942;5.074;2023-04-15T09:53:15;29.80;59.10
18658;DHT22;9458;50.942;5.074;2023-04-15T09:55:48;29.30;58.10
18658;DHT22;9458;50.942;5.074;2023-04-15T09:58:23;28.80;58.30
18658;DHT22;9458;50.942;5.074;2023-04-15T10:00:53;23.90;61.80
18658;DHT22;9458;50.942;5.074;2023-04-15T10:03:24;21.30;68.30
18658;DHT22;9458;50.942;5.074;2023-04-15T10:05:58;19.80;72.00
18658;DHT22;9458;50.942;5.074;2023-04-15T10:08:28;18.40;74.40
18658;DHT22;9458;50.942;5.074;2023-04-15T10:10:56;17.90;77.30
18658;DHT22;9458;50.942;5.074;2023-04-15T10:13:25;17.80;81.50
18658;DHT22;9458;50.942;5.074;2023-04-15T10:15:57;17.10;76.50
18658;DHT22;9458;50.942;5.074;2023-04-15T10:18:33;17.00;79.40
18658;DHT22;9458;50.942;5.074;2023-04-15T10:21:01;17.50;78.80
18658;DHT22;9458;50.942;5.074;2023-04-15T10:23:30;17.80;75.50
18658;DHT22;9458;50.942;5.074;2023-04-15T10:25:59;17.00;73.90
18658;DHT22;9458;50.942;5.074;2023-04-15T10:28:26;16.50;77.00
18658;DHT22;9458;50.942;5.074;2023-04-15T10:30:55;16.20;80.40
18658;DHT22;9458;50.942;5.074;2023-04-15T10:33:26;16.50;83.70
18658;DHT22;9458;50.942;5.074;2023-04-15T10:35:55;16.30;78.60
18658;DHT22;9458;50.942;5.074;2023-04-15T10:38:33;16.40;81.10
18658;DHT22;9458;50.942;5.074;2023-04-15T10:41:15;16.50;84.00
18658;DHT22;9458;50.942;5.074;2023-04-15T10:43:51;16.80;81.00
18658;DHT22;9458;50.942;5.074;2023-04-15T10:46:33;17.00;80.40
18658;DHT22;9458;50.942;5.074;2023-04-15T10:49:08;16.60;78.20
18658;DHT22;9458;50.942;5.074;2023-04-15T10:51:38;16.80;80.60
18658;DHT22;9458;50.942;5.074;2023-04-15T10:54:14;17.00;80.00
18658;DHT22;9458;50.942;5.074;2023-04-15T10:56:43;16.90;79.30
18658;DHT22;9458;50.942;5.074;2023-04-15T10:59:11;16.80;79.20
18658;DHT22;9458;50.942;5.074;2023-04-15T11:01:53;16.90;76.60
18658;DHT22;9458;50.942;5.074;2023-04-15T11:04:53;16.50;74.00
18658;DHT22;9458;50.942;5.074;2023-04-15T11:07:39;16.20;71.40
18658;DHT22;9458;50.942;5.074;2023-04-15T11:13:15;16.20;75.00
18658;DHT22;9458;50.942;5.074;2023-04-15T11:15:43;16.20;73.00
18658;DHT22;9458;50.942;5.074;2023-04-15T11:18:14;15.90;70.10
18658;DHT22;9458;50.942;5.074;2023-04-15T11:20:46;15.80;72.20
18658;DHT22;9458;50.942;5.074;2023-04-15T11:23:16;15.60;70.10
18658;DHT22;9458;50.942;5.074;2023-04-15T11:25:44;15.90;76.80
18658;DHT22;9458;50.942;5.074;2023-04-15T11:28:14;15.90;76.60
18658;DHT22;9458;50.942;5.074;2023-04-15T11:30:42;15.90;75.50
18658;DHT22;9458;50.942;5.074;2023-04-15T11:33:10;16.20;80.20
18658;DHT22;9458;50.942;5.074;2023-04-15T11:35:40;16.80;76.70
18658;DHT22;9458;50.942;5.074;2023-04-15T11:38:12;16.80;74.90
18658;DHT22;9458;50.942;5.074;2023-04-15T11:40:41;16.70;81.60
18658;DHT22;9458;50.942;5.074;2023-04-15T11:43:10;16.80;81.60
18658;DHT22;9458;50.942;5.074;2023-04-15T11:45:49;16.60;81.10
18658;DHT22;9458;50.942;5.074;2023-04-15T11:48:17;16.20;80.30
18658;DHT22;9458;50.942;5.074;2023-04-15T11:50:50;16.30;74.60
18658;DHT22;9458;50.942;5.074;2023-04-15T11:53:21;16.20;77.30
18658;DHT22;9458;50.942;5.074;2023-04-15T11:55:50;16.10;78.70
18658;DHT22;9458;50.942;5.074;2023-04-15T11:58:19;16.10;78.90
18658;DHT22;9458;50.942;5.074;2023-04-15T12:00:48;16.10;74.50
18658;DHT22;9458;50.942;5.074;2023-04-15T12:03:20;16.20;78.10
18658;DHT22;9458;50.942;5.074;2023-04-15T12:06:08;16.30;73.90
18658;DHT22;9458;50.942;5.074;2023-04-15T12:09:02;16.40;73.10
18658;DHT22;9458;50.942;5.074;2023-04-15T12:11:32;15.80;75.00
18658;DHT22;9458;50.942;5.074;2023-04-15T12:14:07;15.40;79.40
18658;DHT22;9458;50.942;5.074;2023-04-15T12:16:43;15.40;79.70
18658;DHT22;9458;50.942;5.074;2023-04-15T12:19:13;15.70;82.60
18658;DHT22;9458;50.942;5.074;2023-04-15T12:21:44;16.10;81.00
18658;DHT22;9458;50.942;5.074;2023-04-15T12:24:20;16.20;82.70
18658;DHT22;9458;50.942;5.074;2023-04-15T12:26:49;15.80;77.60
18658;DHT22;9458;50.942;5.074;2023-04-15T12:29:17;15.60;77.70
18658;DHT22;9458;50.942;5.074;2023-04-15T12:31:48;15.50;80.50
18658;DHT22;9458;50.942;5.074;2023-04-15T12:34:25;15.80;84.30
18658;DHT22;9458;50.942;5.074;2023-04-15T12:36:53;16.00;82.40
18658;DHT22;9458;50.942;5.074;2023-04-15T12:39:23;15.90;78.60
18658;DHT22;9458;50.942;5.074;2023-04-15T12:41:51;15.80;76.40
18658;DHT22;9458;50.942;5.074;2023-04-15T12:44:22;15.80;76.40
18658;DHT22;9458;50.942;5.074;2023-04-15T12:46:51;15.90;77.20
18658;DHT22;9458;50.942;5.074;2023-04-15T12:49:20;15.90;74.60
18658;DHT22;9458;50.942;5.074;2023-04-15T12:51:49;15.80;76.20
18658;DHT22;9458;50.942;5.074;2023-04-15T12:54:17;15.60;77.40
18658;DHT22;9458;50.942;5.074;2023-04-15T12:56:47;15.50;76.30
18658;DHT22;9458;50.942;5.074;2023-04-15T12:59:16;15.30;76.40
18658;DHT22;9458;50.942;5.074;2023-04-15T13:01:44;15.20;77.60
18658;DHT22;9458;50.942;5.074;2023-04-15T13:04:14;15.30;78.50
18658;DHT22;9458;50.942;5.074;2023-04-15T13:06:42;15.40;77.20
18658;DHT22;9458;50.942;5.074;2023-04-15T13:09:10;15.40;76.60
18658;DHT22;9458;50.942;5.074;2023-04-15T13:11:38;15.30;76.30
18658;DHT22;9458;50.942;5.074;2023-04-15T13:14:08;15.30;77.10
18658;DHT22;9458;50.942;5.074;2023-04-15T13:16:36;15.40;77.40
18658;DHT22;9458;50.942;5.074;2023-04-15T13:19:05;15.40;75.80
18658;DHT22;9458;50.942;5.074;2023-04-15T13:21:32;15.50;79.40
18658;DHT22;9458;50.942;5.074;2023-04-15T13:24:00;15.40;77.40
18658;DHT22;9458;50.942;5.074;2023-04-15T13:26:29;15.50;74.00
18658;DHT22;9458;50.942;5.074;2023-04-15T13:28:57;15.50;73.60
18658;DHT22;9458;50.942;5.074;2023-04-15T13:31:26;15.50;77.20
18658;DHT22;9458;50.942;5.074;2023-04-15T13:33:55;15.50;77.40
18658;DHT22;9458;50.942;5.074;2023-04-15T13:36:22;15.30;75.50
18658;DHT22;9458;50.942;5.074;2023-04-15T13:38:51;15.20;74.90
18658;DHT22;9458;50.942;5.074;2023-04-15T13:41:18;15.20;78.20
18658;DHT22;9458;50.942;5.074;2023-04-15T13:43:46;15.30;75.40
18658;DHT22;9458;50.942;5.074;2023-04-15T13:46:14;15.20;76.70
18658;DHT22;9458;50.942;5.074;2023-04-15T13:48:44;15.20;77.50
18658;DHT22;9458;50.942;5.074;2023-04-15T13:51:11;15.10;78.40
18658;DHT22;9458;50.942;5.074;2023-04-15T13:53:39;15.10;81.10
18658;DHT22;9458;50.942;5.074;2023-04-15T13:56:08;15.10;81.10
18658;DHT22;9458;50.942;5.074;2023-04-15T13:58:36;15.10;81.20
18658;DHT22;9458;50.942;5.074;2023-04-15T14:01:04;15.10;83.00
18658;DHT22;9458;50.942;5.074;2023-04-15T14:03:32;15.20;81.20
18658;DHT22;9458;50.942;5.074;2023-04-15T14:06:01;15.30;81.50
18658;DHT22;9458;50.942;5.074;2023-04-15T14:08:29;15.40;80.50
18658;DHT22;9458;50.942;5.074;2023-04-15T14:10:57;15.50;82.10
18658;DHT22;9458;50.942;5.074;2023-04-15T14:13:26;15.50;82.90
18658;DHT22;9458;50.942;5.074;2023-04-15T14:15:55;15.60;80.60
18658;DHT22;9458;50.942;5.074;2023-04-15T14:18:25;15.80;80.90
18658;DHT22;9458;50.942;5.074;2023-04-15T14:21:06;15.90;82.70
18658;DHT22;9458;50.942;5.074;2023-04-15T14:23:34;15.90;81.50
18658;DHT22;9458;50.942;5.074;2023-04-15T14:26:03;15.60;80.10
18658;DHT22;9458;50.942;5.074;2023-04-15T14:28:31;15.50;82.20
18658;DHT22;9458;50.942;5.074;2023-04-15T14:30:59;15.50;82.40
18658;DHT22;9458;50.942;5.074;2023-04-15T14:33:26;15.50;82.70
18658;DHT22;9458;50.942;5.074;2023-04-15T14:35:54;15.60;83.60
18658;DHT22;9458;50.942;5.074;2023-04-15T14:38:22;15.50;81.90
18658;DHT22;9458;50.942;5.074;2023-04-15T14:40:50;15.40;84.60
18658;DHT22;9458;50.942;5.074;2023-04-15T14:43:19;15.50;85.40
18658;DHT22;9458;50.942;5.074;2023-04-15T14:45:47;15.60;86.10
18658;DHT22;9458;50.942;5.074;2023-04-15T14:48:15;15.50;85.30
18658;DHT22;9458;50.942;5.074;2023-04-15T14:50:43;15.10;86.70
18658;DHT22;9458;50.942;5.074;2023-04-15T14:53:11;14.90;87.00
18658;DHT22;9458;50.942;5.074;2023-04-15T14:55:39;14.80;86.50
18658;DHT22;9458;50.942;5.074;2023-04-15T14:58:08;14.70;88.20
18658;DHT22;9458;50.942;5.074;2023-04-15T15:00:35;14.60;86.10
18658;DHT22;9458;50.942;5.074;2023-04-15T15:03:05;14.50;86.90
18658;DHT22;9458;50.942;5.074;2023-04-15T15:05:37;14.40;87.90
18658;DHT22;9458;50.942;5.074;2023-04-15T15:08:06;14.40;90.10
18658;DHT22;9458;50.942;5.074;2023-04-15T15:10:34;14.40;90.00
18658;DHT22;9458;50.942;5.074;2023-04-15T15:13:04;14.50;90.20
18658;DHT22;9458;50.942;5.074;2023-04-15T15:15:32;14.50;89.90
18658;DHT22;9458;50.942;5.074;2023-04-15T15:18:00;14.40;88.70
18658;DHT22;9458;50.942;5.074;2023-04-15T15:20:28;14.30;90.10
18658;DHT22;9458;50.942;5.074;2023-04-15T15:22:56;14.30;91.00
18658;DHT22;9458;50.942;5.074;2023-04-15T15:25:23;14.20;91.10
18658;DHT22;9458;50.942;5.074;2023-04-15T15:27:51;14.40;90.80
18658;DHT22;9458;50.942;5.074;2023-04-15T15:30:20;14.50;91.40
18658;DHT22;9458;50.942;5.074;2023-04-15T15:32:49;14.60;91.10
18658;DHT22;9458;50.942;5.074;2023-04-15T15:35:32;14.70;92.10
18658;DHT22;9458;50.942;5.074;2023-04-15T15:37:59;14.70;91.70
18658;DHT22;9458;50.942;5.074;2023-04-15T15:40:27;14.60;92.00
18658;DHT22;9458;50.942;5.074;2023-04-15T15:43:00;14.60;91.70
18658;DHT22;9458;50.942;5.074;2023-04-15T15:45:30;14.50;92.10
18658;DHT22;9458;50.942;5.074;2023-04-15T15:48:00;14.40;91.90
18658;DHT22;9458;50.942;5.074;2023-04-15T15:50:28;14.40;92.20
18658;DHT22;9458;50.942;5.074;2023-04-15T16:00:26;14.60;92.30
18658;DHT22;9458;50.942;5.074;2023-04-15T16:06:49;14.80;92.70
18658;DHT22;9458;50.942;5.074;2023-04-15T16:09:16;14.90;91.30
18658;DHT22;9458;50.942;5.074;2023-04-15T16:11:45;14.90;91.50
18658;DHT22;9458;50.942;5.074;2023-04-15T16:14:13;14.90;90.90
18658;DHT22;9458;50.942;5.074;2023-04-15T16:16:41;14.80;91.00
18658;DHT22;9458;50.942;5.074;2023-04-15T16:19:09;14.60;90.00
18658;DHT22;9458;50.942;5.074;2023-04-15T16:21:37;14.60;90.50
18658;DHT22;9458;50.942;5.074;2023-04-15T16:24:08;14.50;90.90